createdAt,value
2022-10-22T00:00:00.927Z,9.678081
2022-10-22T00:01:00.870Z,9.678117
2022-10-22T00:02:00.869Z,9.678137
2022-10-22T00:03:00.916Z,9.678159
2022-10-22T00:04:00.886Z,9.678125
2022-10-22T00:05:00.847Z,9.678168
2022-10-22T00:06:00.827Z,9.678176
2022-10-22T00:07:00.825Z,9.678147
2022-10-22T00:08:00.806Z,9.678160
2022-10-22T00:09:00.907Z,9.678141
2022-10-22T00:10:00.809Z,9.678199
2022-10-22T00:11:00.791Z,9.678217
2022-10-22T00:12:00.766Z,9.678214
2022-10-22T00:13:00.765Z,9.678183
2022-10-22T00:14:00.759Z,9.678233
2022-10-22T00:15:00.779Z,9.678274
2022-10-22T00:16:00.734Z,9.678187
2022-10-22T00:17:00.730Z,9.678186
2022-10-22T00:18:00.735Z,9.678123
2022-10-22T00:19:00.715Z,9.678236
2022-10-22T00:20:00.717Z,9.678188
2022-10-22T00:21:00.720Z,9.678239
2022-10-22T00:22:00.696Z,9.678204
2022-10-22T00:23:00.683Z,9.678216
2022-10-22T00:24:00.679Z,9.678225
2022-10-22T00:25:00.662Z,9.678173
2022-10-22T00:26:01.449Z,9.678214
2022-10-22T00:27:00.690Z,9.678272
2022-10-22T00:28:00.642Z,9.678242
2022-10-22T00:29:00.640Z,9.678173
2022-10-22T00:30:00.621Z,9.678180
2022-10-22T00:31:00.631Z,9.678092
2022-10-22T00:32:00.622Z,9.678164
2022-10-22T00:33:00.636Z,9.678182
2022-10-22T00:34:00.603Z,9.678209
2022-10-22T00:35:00.598Z,9.678185
2022-10-22T00:36:00.577Z,9.678219
2022-10-22T00:37:00.581Z,9.678198
2022-10-22T00:38:00.576Z,9.678226
2022-10-22T00:39:00.575Z,9.678138
2022-10-22T00:40:00.542Z,9.678121
2022-10-22T00:42:00.541Z,9.678107
2022-10-22T00:43:00.510Z,9.678145
2022-10-22T00:44:00.506Z,9.678164
2022-10-22T00:45:00.518Z,9.678143
2022-10-22T00:46:00.494Z,9.678098
2022-10-22T00:47:00.483Z,9.678143
2022-10-22T00:48:00.496Z,9.678176
2022-10-22T00:49:00.466Z,9.678133
2022-10-22T00:50:00.531Z,9.678053
2022-10-22T00:51:00.462Z,9.678126
2022-10-22T00:52:00.437Z,9.678102
2022-10-22T00:53:00.723Z,9.678124
2022-10-22T00:54:00.446Z,9.678116
2022-10-22T00:55:00.425Z,9.678070
2022-10-22T00:56:00.415Z,9.678080
2022-10-22T00:57:00.398Z,9.678049
2022-10-22T00:58:00.390Z,9.678068
2022-10-22T00:59:00.410Z,9.678089
2022-10-22T01:00:00.383Z,9.678095
2022-10-22T01:01:00.444Z,9.678107
2022-10-22T01:02:00.350Z,9.678074
2022-10-22T01:03:00.342Z,9.678102
2022-10-22T01:04:00.348Z,9.678101
2022-10-22T01:05:00.328Z,9.678096
2022-10-22T01:06:00.354Z,9.678085
2022-10-22T01:07:00.325Z,9.678090
2022-10-22T01:08:00.394Z,9.678099
2022-10-22T01:09:00.330Z,9.678082
2022-10-22T01:10:00.291Z,9.678121
2022-10-22T01:11:00.276Z,9.678147
2022-10-22T01:12:00.294Z,9.678159
2022-10-22T01:13:00.274Z,9.678138
2022-10-22T01:14:00.284Z,9.678121
2022-10-22T01:15:00.247Z,9.678159
2022-10-22T01:16:00.242Z,9.678114
2022-10-22T01:17:00.231Z,9.678081
2022-10-22T01:18:00.249Z,9.678110
2022-10-22T01:19:00.212Z,9.678088
2022-10-22T01:20:00.227Z,9.678065
2022-10-22T01:21:00.189Z,9.678092
2022-10-22T01:22:00.190Z,9.678098
2022-10-22T01:23:00.176Z,9.678103
2022-10-22T01:24:00.188Z,9.678110
2022-10-22T01:25:00.189Z,9.678083
2022-10-22T01:26:00.154Z,9.678113
2022-10-22T01:27:00.142Z,9.678077
2022-10-22T01:28:00.160Z,9.678083
2022-10-22T01:29:00.159Z,9.678073
2022-10-22T01:30:00.127Z,9.678052
2022-10-22T01:31:00.114Z,9.678079
2022-10-22T01:32:00.109Z,9.678125
2022-10-22T01:33:00.105Z,9.678087
2022-10-22T01:34:00.097Z,9.678078
2022-10-22T01:35:00.112Z,9.678062
2022-10-22T01:36:00.124Z,9.678097
2022-10-22T01:37:00.078Z,9.678050
2022-10-22T01:38:00.062Z,9.678026
2022-10-22T01:39:00.044Z,9.678058
2022-10-22T01:40:00.041Z,9.678041
2022-10-22T01:41:00.053Z,9.678061
2022-10-22T01:42:00.023Z,9.678044
2022-10-22T01:43:00.014Z,9.678100
2022-10-22T01:44:00.004Z,9.678079
2022-10-22T01:45:00.014Z,9.678052
2022-10-22T01:45:59.989Z,9.678071
2022-10-22T01:47:00.002Z,9.678102
2022-10-22T01:47:59.981Z,9.678082
2022-10-22T01:48:59.973Z,9.678080
2022-10-22T01:49:59.961Z,9.678083
2022-10-22T01:50:59.981Z,9.678102
2022-10-22T01:51:59.952Z,9.678084
2022-10-22T01:52:59.930Z,9.678083
2022-10-22T01:53:59.931Z,9.678089
2022-10-22T01:54:59.917Z,9.678040
2022-10-22T01:55:59.914Z,9.678072
2022-10-22T01:56:59.929Z,9.678055
2022-10-22T01:57:59.902Z,9.678052
2022-10-22T01:58:59.891Z,9.678039
2022-10-22T01:59:59.886Z,9.678031
2022-10-22T02:00:59.945Z,9.678043
2022-10-22T02:01:59.879Z,9.678083
2022-10-22T02:02:59.905Z,9.678030
2022-10-22T02:04:00.485Z,9.678083
2022-10-22T02:04:59.850Z,9.678102
2022-10-22T02:05:59.830Z,9.678043
2022-10-22T02:06:59.847Z,9.678061
2022-10-22T02:07:59.828Z,9.678051
2022-10-22T02:08:59.851Z,9.678090
2022-10-22T02:09:59.857Z,9.678076
2022-10-22T02:10:59.805Z,9.678038
2022-10-22T02:11:59.833Z,9.678078
2022-10-22T02:12:59.818Z,9.678075
2022-10-22T02:13:59.785Z,9.678038
2022-10-22T02:14:59.769Z,9.678074
2022-10-22T02:15:59.804Z,9.678120
2022-10-22T02:16:59.768Z,9.678050
2022-10-22T02:17:59.748Z,9.678021
2022-10-22T02:18:59.743Z,9.678064
2022-10-22T02:19:59.785Z,9.678044
2022-10-22T02:20:59.755Z,9.678069
2022-10-22T02:21:59.727Z,9.678087
2022-10-22T02:22:59.695Z,9.678084
2022-10-22T02:23:59.703Z,9.678127
2022-10-22T02:24:59.717Z,9.678072
2022-10-22T02:28:11.001Z,9.678052
2022-10-22T02:29:10.988Z,9.678049
2022-10-22T02:30:11.022Z,9.678054
2022-10-22T02:31:10.965Z,9.678014
2022-10-22T02:32:10.978Z,9.678023
2022-10-22T02:33:10.960Z,9.678018
2022-10-22T02:34:10.949Z,9.677988
2022-10-22T02:35:10.940Z,9.677973
2022-10-22T02:36:10.945Z,9.678053
2022-10-22T02:37:10.969Z,9.678094
2022-10-22T02:38:10.929Z,9.678078
2022-10-22T02:39:11.009Z,9.678099
2022-10-22T02:40:10.914Z,9.678041
2022-10-22T02:41:10.885Z,9.677987
2022-10-22T02:42:10.882Z,9.678071
2022-10-22T02:43:10.897Z,9.678075
2022-10-22T02:44:10.885Z,9.678056
2022-10-22T02:45:10.902Z,9.678086
2022-10-22T02:46:10.849Z,9.678093
2022-10-22T02:47:10.838Z,9.678087
2022-10-22T02:48:10.958Z,9.678035
2022-10-22T02:49:10.855Z,9.678057
2022-10-22T02:50:10.828Z,9.678058
2022-10-22T02:51:10.842Z,9.678083
2022-10-22T02:52:10.814Z,9.678075
2022-10-22T02:53:10.811Z,9.678079
2022-10-22T02:54:10.795Z,9.678095
2022-10-22T02:55:10.780Z,9.678084
2022-10-22T02:56:10.803Z,9.678077
2022-10-22T02:57:10.852Z,9.678140
2022-10-22T02:58:10.769Z,9.678090
2022-10-22T02:59:10.743Z,9.678077
2022-10-22T03:00:10.740Z,9.678119
2022-10-22T03:01:13.754Z,9.678107
2022-10-22T03:02:11.784Z,9.678084
2022-10-22T03:03:10.724Z,9.678048
2022-10-22T03:04:10.721Z,9.678070
2022-10-22T03:05:10.713Z,9.678088
2022-10-22T03:06:10.697Z,9.678075
2022-10-22T03:07:10.685Z,9.678034
2022-10-22T03:08:10.751Z,9.678024
2022-10-22T03:09:10.673Z,9.678071
2022-10-22T03:10:10.676Z,9.678063
2022-10-22T03:11:10.662Z,9.678065
2022-10-22T03:12:10.649Z,9.678113
2022-10-22T03:13:10.638Z,9.678110
2022-10-22T03:14:10.678Z,9.678022
2022-10-22T03:15:10.618Z,9.677962
2022-10-22T03:16:10.614Z,9.678014
2022-10-22T03:17:10.605Z,9.678038
2022-10-22T03:18:10.609Z,9.678052
2022-10-22T03:19:10.587Z,9.678063
2022-10-22T03:20:10.606Z,9.678042
2022-10-22T03:21:10.576Z,9.678025
2022-10-22T03:22:10.565Z,9.677998
2022-10-22T03:23:10.561Z,9.677991
2022-10-22T03:24:10.553Z,9.678042
2022-10-22T03:25:10.570Z,9.678070
2022-10-22T03:26:10.537Z,9.678049
2022-10-22T03:27:10.518Z,9.678017
2022-10-22T03:28:10.526Z,9.678072
2022-10-22T03:29:10.526Z,9.678061
2022-10-22T03:30:10.500Z,9.678080
2022-10-22T03:31:10.522Z,9.678063
2022-10-22T03:32:10.486Z,9.678068
2022-10-22T03:33:10.478Z,9.678059
2022-10-22T03:34:10.480Z,9.678060
2022-10-22T03:35:10.468Z,9.678101
2022-10-22T03:36:10.482Z,9.678037
2022-10-22T03:37:10.442Z,9.678006
2022-10-22T03:38:10.435Z,9.678048
2022-10-22T03:39:10.429Z,9.678044
2022-10-22T03:40:10.424Z,9.678047
2022-10-22T03:41:10.429Z,9.678076
2022-10-22T03:42:10.415Z,9.678077
2022-10-22T03:43:10.398Z,9.678010
2022-10-22T03:44:10.391Z,9.678054
2022-10-22T03:45:10.388Z,9.678065
2022-10-22T03:46:10.380Z,9.678027
2022-10-22T03:47:10.441Z,9.678049
2022-10-22T03:48:10.368Z,9.678082
2022-10-22T03:49:10.352Z,9.678060
2022-10-22T03:50:10.357Z,9.678094
2022-10-22T03:51:10.346Z,9.678058
2022-10-22T03:52:10.350Z,9.678070
2022-10-22T03:53:10.339Z,9.678076
2022-10-22T03:54:10.321Z,9.678093
2022-10-22T03:55:10.308Z,9.678087
2022-10-22T03:56:10.305Z,9.678051
2022-10-22T03:57:10.288Z,9.678040
2022-10-22T03:58:10.282Z,9.678064
2022-10-22T03:59:10.300Z,9.678057
2022-10-22T04:00:10.278Z,9.678038
2022-10-22T04:01:10.303Z,9.678097
2022-10-22T04:02:10.250Z,9.678074
2022-10-22T04:03:10.245Z,9.678091
2022-10-22T04:04:10.241Z,9.678085
2022-10-22T04:05:10.354Z,9.678053
2022-10-22T04:06:10.244Z,9.678062
2022-10-22T04:07:10.217Z,9.678089
2022-10-22T04:08:10.219Z,9.678052
2022-10-22T04:09:10.265Z,9.678088
2022-10-22T04:10:10.181Z,9.678061
2022-10-22T04:11:10.196Z,9.678094
2022-10-22T04:12:10.172Z,9.678081
2022-10-22T04:13:10.177Z,9.678101
2022-10-22T04:14:10.165Z,9.678070
2022-10-22T04:15:10.146Z,9.678029
2022-10-22T04:16:10.162Z,9.677985
2022-10-22T04:17:10.136Z,9.678088
2022-10-22T04:18:10.126Z,9.678084
2022-10-22T04:19:10.127Z,9.678133
2022-10-22T04:20:10.115Z,9.678095
2022-10-22T04:21:10.100Z,9.678125
2022-10-22T04:22:10.109Z,9.678084
2022-10-22T04:23:10.082Z,9.678095
2022-10-22T04:24:10.071Z,9.678086
2022-10-22T04:25:10.061Z,9.678069
2022-10-22T04:26:10.066Z,9.678082
2022-10-22T04:27:10.053Z,9.678082
2022-10-22T04:28:10.073Z,9.678063
2022-10-22T04:29:13.377Z,9.678019
2022-10-22T04:30:11.132Z,9.678092
2022-10-22T04:31:10.034Z,9.678116
2022-10-22T04:32:10.029Z,9.678122
2022-10-22T04:33:10.004Z,9.678105
2022-10-22T04:34:10.018Z,9.678138
2022-10-22T04:35:09.985Z,9.678002
2022-10-22T04:36:09.982Z,9.678034
2022-10-22T04:37:09.971Z,9.678139
2022-10-22T04:38:09.964Z,9.678073
2022-10-22T04:39:09.959Z,9.678063
2022-10-22T04:40:10.005Z,9.678083
2022-10-22T04:41:09.951Z,9.678064
2022-10-22T04:42:09.937Z,9.678102
2022-10-22T04:43:09.929Z,9.678185
2022-10-22T04:44:12.417Z,9.678104
2022-10-22T04:45:10.945Z,9.678097
2022-10-22T04:46:09.915Z,9.678062
2022-10-22T04:47:09.899Z,9.678150
2022-10-22T04:48:09.892Z,9.678061
2022-10-22T04:49:09.878Z,9.678046
2022-10-22T04:50:09.874Z,9.678061
2022-10-22T04:51:09.896Z,9.678088
2022-10-22T04:52:09.857Z,9.678043
2022-10-22T04:53:09.843Z,9.677973
2022-10-22T04:54:09.839Z,9.678054
2022-10-22T04:55:09.821Z,9.678094
2022-10-22T04:56:09.864Z,9.678106
2022-10-22T04:57:09.843Z,9.678115
2022-10-22T04:58:09.817Z,9.678076
2022-10-22T04:59:09.800Z,9.678120
2022-10-22T05:00:09.805Z,9.678109
2022-10-22T05:01:09.806Z,9.678120
2022-10-22T05:02:09.784Z,9.678056
2022-10-22T05:03:09.864Z,9.678077
2022-10-22T05:04:09.758Z,9.678116
2022-10-22T05:05:09.749Z,9.678063
2022-10-22T05:06:09.771Z,9.678049
2022-10-22T05:07:09.753Z,9.678041
2022-10-22T05:08:09.745Z,9.678058
2022-10-22T05:09:09.768Z,9.678092
2022-10-22T05:10:09.705Z,9.678103
2022-10-22T05:11:09.694Z,9.678123
2022-10-22T05:12:09.717Z,9.678102
2022-10-22T05:13:09.691Z,9.678143
2022-10-22T05:14:09.721Z,9.678162
2022-10-22T05:15:09.677Z,9.678133
2022-10-22T05:16:09.670Z,9.678112
2022-10-22T05:17:09.663Z,9.678109
2022-10-22T05:18:09.653Z,9.678124
2022-10-22T05:19:09.662Z,9.678108
2022-10-22T05:20:09.629Z,9.678096
2022-10-22T05:21:09.630Z,9.678151
2022-10-22T05:22:09.614Z,9.678130
2022-10-22T05:23:09.607Z,9.678203
2022-10-22T05:24:09.598Z,9.678124
2022-10-22T05:25:09.615Z,9.678185
2022-10-22T05:26:09.586Z,9.678156
2022-10-22T05:27:09.627Z,9.678135
2022-10-22T05:28:09.575Z,9.678106
2022-10-22T05:29:09.562Z,9.678135
2022-10-22T05:30:09.555Z,9.678147
2022-10-22T05:31:09.583Z,9.678164
2022-10-22T05:32:09.551Z,9.678116
2022-10-22T05:33:09.537Z,9.678161
2022-10-22T05:34:09.522Z,9.678112
2022-10-22T05:35:09.512Z,9.678089
2022-10-22T05:36:09.524Z,9.678091
2022-10-22T05:37:09.491Z,9.678084
2022-10-22T05:38:09.492Z,9.678130
2022-10-22T05:39:09.480Z,9.678119
2022-10-22T05:40:19.116Z,9.678102
2022-10-22T05:41:10.484Z,9.678083
2022-10-22T05:42:09.467Z,9.678116
2022-10-22T05:43:09.447Z,9.678122
2022-10-22T05:44:09.439Z,9.678089
2022-10-22T05:45:09.440Z,9.678042
2022-10-22T05:46:09.427Z,9.678102
2022-10-22T05:47:09.452Z,9.678054
2022-10-22T05:48:09.430Z,9.678083
2022-10-22T05:49:09.406Z,9.678124
2022-10-22T05:50:09.390Z,9.678136
2022-10-22T05:51:09.379Z,9.678077
2022-10-22T05:52:09.377Z,9.678080
2022-10-22T05:53:09.371Z,9.678101
2022-10-22T05:54:09.372Z,9.678090
2022-10-22T05:55:09.349Z,9.678120
2022-10-22T05:56:09.338Z,9.678087
2022-10-22T05:57:09.332Z,9.678083
2022-10-22T05:58:09.324Z,9.678082
2022-10-22T05:59:09.332Z,9.678083
2022-10-22T06:00:11.701Z,9.678118
2022-10-22T06:01:09.303Z,9.678141
2022-10-22T06:02:09.343Z,9.678100
2022-10-22T06:03:09.286Z,9.678101
2022-10-22T06:04:09.302Z,9.678147
2022-10-22T06:05:09.270Z,9.678129
2022-10-22T06:06:09.264Z,9.678100
2022-10-22T06:07:09.248Z,9.678102
2022-10-22T06:08:09.277Z,9.678122
2022-10-22T06:09:09.370Z,9.678144
2022-10-22T06:10:09.430Z,9.678123
2022-10-22T06:11:09.214Z,9.678141
2022-10-22T06:12:09.411Z,9.678136
2022-10-22T06:13:09.257Z,9.678133
2022-10-22T06:14:09.190Z,9.678096
2022-10-22T06:15:09.242Z,9.678154
2022-10-22T06:16:09.178Z,9.678170
2022-10-22T06:17:09.389Z,9.678161
2022-10-22T06:18:09.167Z,9.678144
2022-10-22T06:19:09.221Z,9.678105
2022-10-22T06:20:09.155Z,9.678185
2022-10-22T06:21:09.204Z,9.678145
2022-10-22T06:22:09.135Z,9.678146
2022-10-22T06:23:09.150Z,9.678152
2022-10-22T06:24:09.131Z,9.678118
2022-10-22T06:25:09.141Z,9.678124
2022-10-22T06:26:09.095Z,9.678136
2022-10-22T06:27:09.129Z,9.678148
2022-10-22T06:28:09.095Z,9.678207
2022-10-22T06:29:09.155Z,9.678186
2022-10-22T06:30:09.081Z,9.678217
2022-10-22T06:31:09.223Z,9.678101
2022-10-22T06:32:09.061Z,9.678117
2022-10-22T06:33:09.044Z,9.678161
2022-10-22T06:34:09.300Z,9.678091
2022-10-22T06:35:09.037Z,9.678148
2022-10-22T06:36:09.019Z,9.678134
2022-10-22T06:37:09.026Z,9.678100
2022-10-22T06:38:09.030Z,9.678131
2022-10-22T06:39:09.003Z,9.678156
2022-10-22T06:40:08.998Z,9.678086
2022-10-22T06:41:08.993Z,9.678159
2022-10-22T06:42:08.969Z,9.678164
2022-10-22T06:43:08.996Z,9.678144
2022-10-22T06:44:09.096Z,9.678105
2022-10-22T06:45:08.953Z,9.678100
2022-10-22T06:46:08.957Z,9.678163
2022-10-22T06:47:08.933Z,9.678230
2022-10-22T06:48:08.924Z,9.678196
2022-10-22T06:49:08.927Z,9.678186
2022-10-22T06:50:08.925Z,9.678177
2022-10-22T06:51:08.902Z,9.678172
2022-10-22T06:52:09.007Z,9.678136
2022-10-22T06:53:08.906Z,9.678133
2022-10-22T06:54:08.885Z,9.678150
2022-10-22T06:55:08.869Z,9.678156
2022-10-22T06:56:08.896Z,9.678207
2022-10-22T06:57:08.891Z,9.678170
2022-10-22T06:58:08.860Z,9.678184
2022-10-22T06:59:08.839Z,9.678176
2022-10-22T07:00:08.844Z,9.678214
2022-10-22T07:01:08.883Z,9.678160
2022-10-22T07:02:08.830Z,9.678237
2022-10-22T07:03:08.820Z,9.678203
2022-10-22T07:04:08.817Z,9.678127
2022-10-22T07:05:08.783Z,9.678131
2022-10-22T07:06:08.772Z,9.678199
2022-10-22T07:07:08.783Z,9.678218
2022-10-22T07:08:08.764Z,9.678192
2022-10-22T07:09:08.816Z,9.678155
2022-10-22T07:10:08.748Z,9.678144
2022-10-22T07:11:08.738Z,9.678166
2022-10-22T07:12:08.735Z,9.678129
2022-10-22T07:13:08.775Z,9.678164
2022-10-22T07:14:08.726Z,9.678142
2022-10-22T07:15:08.704Z,9.678132
2022-10-22T07:16:08.743Z,9.678195
2022-10-22T07:17:08.940Z,9.678184
2022-10-22T07:18:09.926Z,9.678185
2022-10-22T07:19:08.706Z,9.678133
2022-10-22T07:20:08.697Z,9.678163
2022-10-22T07:21:08.670Z,9.678171
2022-10-22T07:22:08.657Z,9.678168
2022-10-22T07:23:08.649Z,9.678166
2022-10-22T07:24:08.663Z,9.678196
2022-10-22T07:25:08.640Z,9.678202
2022-10-22T07:26:08.625Z,9.678147
2022-10-22T07:27:10.969Z,9.678170
2022-10-22T07:28:08.625Z,9.678134
2022-10-22T07:29:09.509Z,9.678122
2022-10-22T07:30:08.594Z,9.678144
2022-10-22T07:31:08.609Z,9.678134
2022-10-22T07:32:08.612Z,9.678157
2022-10-22T07:33:08.563Z,9.678162
2022-10-22T07:38:02.591Z,9.678120
2022-10-22T07:39:02.583Z,9.678151
2022-10-22T07:40:03.931Z,9.678133
2022-10-22T07:41:02.551Z,9.678115
2022-10-22T07:42:02.544Z,9.678158
2022-10-22T07:43:02.563Z,9.678158
2022-10-22T07:44:02.536Z,9.678168
2022-10-22T07:45:02.525Z,9.678181
2022-10-22T07:46:02.505Z,9.678156
2022-10-22T07:47:02.494Z,9.678176
2022-10-22T07:48:02.499Z,9.678203
2022-10-22T07:49:02.922Z,9.678205
2022-10-22T07:50:02.479Z,9.678168
2022-10-22T07:51:02.469Z,9.678211
2022-10-22T07:52:02.459Z,9.678249
2022-10-22T07:53:02.456Z,9.678223
2022-10-22T07:54:02.454Z,9.678151
2022-10-22T07:55:02.574Z,9.678198
2022-10-22T07:56:02.427Z,9.678164
2022-10-22T07:57:02.416Z,9.678160
2022-10-22T07:58:02.409Z,9.678181
2022-10-22T08:00:02.391Z,9.678222
2022-10-22T08:01:02.458Z,9.678186
2022-10-22T08:02:03.123Z,9.678144
2022-10-22T08:03:02.378Z,9.678145
2022-10-22T08:04:02.370Z,9.678144
2022-10-22T08:05:02.345Z,9.678124
2022-10-22T08:06:02.331Z,9.678138
2022-10-22T08:07:02.335Z,9.678143
2022-10-22T08:08:02.329Z,9.678215
2022-10-22T08:09:02.370Z,9.678188
2022-10-22T08:10:02.308Z,9.678144
2022-10-22T08:11:02.316Z,9.678173
2022-10-22T08:12:02.333Z,9.678208
2022-10-22T08:13:02.278Z,9.678187
2022-10-22T08:14:02.268Z,9.678205
2022-10-22T08:15:02.257Z,9.678183
2022-10-22T08:16:02.267Z,9.678178
2022-10-22T08:17:02.415Z,9.678154
2022-10-22T08:18:02.449Z,9.678146
2022-10-22T08:19:03.141Z,9.678153
2022-10-22T08:20:02.213Z,9.678200
2022-10-22T08:21:02.197Z,9.678201
2022-10-22T08:22:02.410Z,9.678204
2022-10-22T08:23:02.206Z,9.678206
2022-10-22T08:24:02.292Z,9.678196
2022-10-22T08:25:02.176Z,9.678201
2022-10-22T08:26:02.194Z,9.678224
2022-10-22T08:27:02.161Z,9.678242
2022-10-22T08:28:02.181Z,9.678257
2022-10-22T08:29:02.246Z,9.678170
2022-10-22T08:30:02.838Z,9.678195
2022-10-22T08:31:02.131Z,9.678185
2022-10-22T08:32:02.141Z,9.678205
2022-10-22T08:33:02.100Z,9.678214
2022-10-22T08:34:02.100Z,9.678186
2022-10-22T08:35:02.302Z,9.678152
2022-10-22T08:36:02.077Z,9.678193
2022-10-22T08:37:02.245Z,9.678212
2022-10-22T08:38:02.367Z,9.678222
2022-10-22T08:39:02.055Z,9.678194
2022-10-22T08:40:02.073Z,9.678180
2022-10-22T08:41:02.121Z,9.678221
2022-10-22T08:42:02.094Z,9.678163
2022-10-22T08:43:02.046Z,9.678152
2022-10-22T08:44:02.046Z,9.678199
2022-10-22T08:45:02.007Z,9.678171
2022-10-22T08:46:03.083Z,9.678182
2022-10-22T08:47:02.025Z,9.678150
2022-10-22T08:48:01.983Z,9.678174
2022-10-22T08:49:02.041Z,9.678125
2022-10-22T08:50:01.953Z,9.678132
2022-10-22T08:51:01.958Z,9.678160
2022-10-22T08:52:01.963Z,9.678144
2022-10-22T08:53:01.947Z,9.678140
2022-10-22T08:54:01.951Z,9.678107
2022-10-22T08:55:02.053Z,9.678122
2022-10-22T08:56:01.899Z,9.678148
2022-10-22T08:57:01.938Z,9.678127
2022-10-22T08:58:01.888Z,9.678146
2022-10-22T08:59:01.884Z,9.678186
2022-10-22T09:00:01.909Z,9.678154
2022-10-22T09:01:09.416Z,9.678142
2022-10-22T09:02:01.863Z,9.678131
2022-10-22T09:03:01.844Z,9.678132
2022-10-22T09:04:01.907Z,9.678132
2022-10-22T09:05:01.845Z,9.678170
2022-10-22T09:06:01.855Z,9.678153
2022-10-22T09:07:01.805Z,9.678167
2022-10-22T09:08:01.823Z,9.678170
2022-10-22T09:09:01.855Z,9.678196
2022-10-22T09:10:01.802Z,9.678175
2022-10-22T09:11:01.783Z,9.678178
2022-10-22T09:12:01.765Z,9.678130
2022-10-22T09:13:01.791Z,9.678170
2022-10-22T09:14:01.910Z,9.678162
2022-10-22T09:15:01.761Z,9.678137
2022-10-22T09:16:01.766Z,9.678188
2022-10-22T09:17:01.723Z,9.678168
2022-10-22T09:18:02.791Z,9.678172
2022-10-22T09:19:01.758Z,9.678134
2022-10-22T09:20:01.802Z,9.678116
2022-10-22T09:21:01.699Z,9.678115
2022-10-22T09:22:01.705Z,9.678160
2022-10-22T09:23:01.663Z,9.678158
2022-10-22T09:24:01.663Z,9.678150
2022-10-22T09:25:01.682Z,9.678166
2022-10-22T09:26:01.639Z,9.678129
2022-10-22T09:27:01.640Z,9.678158
2022-10-22T09:28:01.627Z,9.678186
2022-10-22T09:29:01.644Z,9.678139
2022-10-22T09:30:01.755Z,9.678156
2022-10-22T09:31:01.686Z,9.678168
2022-10-22T09:32:01.653Z,9.678173
2022-10-22T09:33:01.581Z,9.678245
2022-10-22T09:34:01.580Z,9.678181
2022-10-22T09:35:01.561Z,9.678175
2022-10-22T09:36:01.569Z,9.678194
2022-10-22T09:37:01.548Z,9.678205
2022-10-22T09:38:01.531Z,9.678198
2022-10-22T09:39:01.527Z,9.678217
2022-10-22T09:40:01.551Z,9.678216
2022-10-22T09:41:01.509Z,9.678196
2022-10-22T09:42:01.496Z,9.678175
2022-10-22T09:43:01.502Z,9.678185
2022-10-22T09:44:01.479Z,9.678201
2022-10-22T09:45:01.734Z,9.678172
2022-10-22T09:46:01.491Z,9.678181
2022-10-22T09:47:01.478Z,9.678176
2022-10-22T09:48:02.346Z,9.678217
2022-10-22T09:49:01.499Z,9.678209
2022-10-22T09:50:01.428Z,9.678162
2022-10-22T09:51:04.191Z,9.678186
2022-10-22T09:52:03.632Z,9.678149
2022-10-22T09:53:02.601Z,9.678219
2022-10-22T09:54:03.385Z,9.678173
2022-10-22T09:55:01.417Z,9.678194
2022-10-22T09:56:01.494Z,9.678173
2022-10-22T09:57:01.705Z,9.678145
2022-10-22T09:58:01.390Z,9.678164
2022-10-22T09:59:01.546Z,9.678186
2022-10-22T10:00:01.342Z,9.678181
2022-10-22T10:01:01.343Z,9.678174
2022-10-22T10:02:13.427Z,9.678176
2022-10-22T10:03:02.360Z,9.678196
2022-10-22T10:04:04.432Z,9.678127
2022-10-22T10:05:01.297Z,9.678170
2022-10-22T10:06:04.818Z,9.678176
2022-10-22T10:07:01.274Z,9.678277
2022-10-22T10:08:01.574Z,9.678280
2022-10-22T10:09:01.538Z,9.678207
2022-10-22T10:10:01.277Z,9.678191
2022-10-22T10:11:01.241Z,9.678184
2022-10-22T10:12:01.426Z,9.678224
2022-10-22T10:13:01.228Z,9.678171
2022-10-22T10:14:01.405Z,9.678154
2022-10-22T10:15:05.466Z,9.678189
2022-10-22T10:16:01.211Z,9.678202
2022-10-22T10:17:01.267Z,9.678274
2022-10-22T10:18:01.166Z,9.678203
2022-10-22T10:19:01.162Z,9.678155
2022-10-22T10:20:03.778Z,9.678196
2022-10-22T10:21:01.202Z,9.678232
2022-10-22T10:22:01.160Z,9.678212
2022-10-22T10:23:01.138Z,9.678162
2022-10-22T10:24:01.141Z,9.678164
2022-10-22T10:25:01.129Z,9.678174
2022-10-22T10:26:01.120Z,9.678144
2022-10-22T10:27:01.117Z,9.678131
2022-10-22T10:28:01.095Z,9.678178
2022-10-22T10:29:01.111Z,9.678182
2022-10-22T10:30:01.133Z,9.678162
2022-10-22T10:31:01.129Z,9.678157
2022-10-22T10:32:01.086Z,9.678149
2022-10-22T10:33:01.073Z,9.678233
2022-10-22T10:34:01.049Z,9.678181
2022-10-22T10:35:01.035Z,9.678135
2022-10-22T10:36:01.015Z,9.678167
2022-10-22T10:37:01.014Z,9.678186
2022-10-22T10:38:01.224Z,9.678210
2022-10-22T10:39:01.040Z,9.678157
2022-10-22T10:40:01.133Z,9.678165
2022-10-22T10:41:00.992Z,9.678141
2022-10-22T10:42:01.037Z,9.678171
2022-10-22T10:43:01.077Z,9.678192
2022-10-22T10:44:01.163Z,9.678224
2022-10-22T10:45:01.027Z,9.678220
2022-10-22T10:46:00.936Z,9.678191
2022-10-22T10:47:00.923Z,9.678202
2022-10-22T10:48:00.933Z,9.678203
2022-10-22T10:49:00.920Z,9.678211
2022-10-22T10:50:00.903Z,9.678204
2022-10-22T10:51:00.904Z,9.678191
2022-10-22T10:52:01.172Z,9.678203
2022-10-22T10:53:01.210Z,9.678214
2022-10-22T10:54:00.911Z,9.678190
2022-10-22T10:55:00.874Z,9.678177
2022-10-22T10:56:00.883Z,9.678193
2022-10-22T10:57:00.850Z,9.678182
2022-10-22T10:58:00.833Z,9.678202
2022-10-22T10:59:00.826Z,9.678221
2022-10-22T11:00:00.825Z,9.678189
2022-10-22T11:01:00.814Z,9.678203
2022-10-22T11:02:00.857Z,9.678230
2022-10-22T11:03:00.809Z,9.678227
2022-10-22T11:04:00.801Z,9.678259
2022-10-22T11:05:00.793Z,9.678182
2022-10-22T11:06:00.817Z,9.678220
2022-10-22T11:07:10.965Z,9.678186
2022-10-22T11:08:01.762Z,9.678168
2022-10-22T11:09:00.849Z,9.678089
2022-10-22T11:10:00.777Z,9.678175
2022-10-22T11:11:00.748Z,9.678150
2022-10-22T11:12:00.751Z,9.678207
2022-10-22T11:13:00.924Z,9.678210
2022-10-22T11:14:00.721Z,9.678185
2022-10-22T11:15:00.710Z,9.678233
2022-10-22T11:16:00.738Z,9.678237
2022-10-22T11:17:00.718Z,9.678167
2022-10-22T11:18:00.688Z,9.678231
2022-10-22T11:19:00.688Z,9.678212
2022-10-22T11:20:00.810Z,9.678245
2022-10-22T11:21:00.690Z,9.678226
2022-10-22T11:22:00.658Z,9.678221
2022-10-22T11:23:18.878Z,9.678247
2022-10-22T11:24:01.649Z,9.678218
2022-10-22T11:25:00.638Z,9.678216
2022-10-22T11:26:00.634Z,9.678193
2022-10-22T11:27:00.687Z,9.678185
2022-10-22T11:28:06.639Z,9.678126
2022-10-22T11:29:01.596Z,9.678153
2022-10-22T11:30:00.594Z,9.678136
2022-10-22T11:31:00.594Z,9.678187
2022-10-22T11:32:00.595Z,9.678160
2022-10-22T11:33:00.565Z,9.678161
2022-10-22T11:34:09.858Z,9.678218
2022-10-22T11:35:01.559Z,9.678182
2022-10-22T11:36:00.574Z,9.678185
2022-10-22T11:37:00.533Z,9.678168
2022-10-22T11:38:00.521Z,9.678185
2022-10-22T11:39:00.520Z,9.678177
2022-10-22T11:40:00.530Z,9.678190
2022-10-22T11:41:00.498Z,9.678155
2022-10-22T11:42:00.493Z,9.678141
2022-10-22T11:43:00.539Z,9.678179
2022-10-22T11:44:00.467Z,9.678185
2022-10-22T11:45:00.464Z,9.678161
2022-10-22T11:46:00.473Z,9.678167
2022-10-22T11:47:00.443Z,9.678139
2022-10-22T11:48:00.463Z,9.678163
2022-10-22T11:49:00.433Z,9.678150
2022-10-22T11:50:00.428Z,9.678144
2022-10-22T11:51:00.443Z,9.678148
2022-10-22T11:52:04.275Z,9.678148